sensor_id;sensor_type;location;lat;lon;timestamp;temperature;humidity
17697;DHT22;8967;47.984;7.842;2022-08-19T00:01:56;19.90;99.90
17697;DHT22;8967;47.984;7.842;2022-08-19T00:04:26;19.80;99.90
17697;DHT22;8967;47.984;7.842;2022-08-19T00:06:55;19.80;99.90
17697;DHT22;8967;47.984;7.842;2022-08-19T00:09:27;19.80;99.90
17697;DHT22;8967;47.984;7.842;2022-08-19T00:11:58;19.80;99.90
17697;DHT22;8967;47.984;7.842;2022-08-19T00:14:27;19.80;99.90
17697;DHT22;8967;47.984;7.842;2022-08-19T00:16:57;19.70;99.90
17697;DHT22;8967;47.984;7.842;2022-08-19T00:19:24;19.70;99.90
17697;DHT22;8967;47.984;7.842;2022-08-19T00:21:52;19.70;99.90
17697;DHT22;8967;47.984;7.842;2022-08-19T00:24:20;19.70;99.90
17697;DHT22;8967;47.984;7.842;2022-08-19T00:26:47;19.70;99.90
17697;DHT22;8967;47.984;7.842;2022-08-19T00:29:17;19.70;99.90
17697;DHT22;8967;47.984;7.842;2022-08-19T00:31:45;19.70;99.90
17697;DHT22;8967;47.984;7.842;2022-08-19T00:34:13;19.70;99.90
17697;DHT22;8967;47.984;7.842;2022-08-19T00:36:42;19.60;99.90
17697;DHT22;8967;47.984;7.842;2022-08-19T00:39:10;19.60;99.90
17697;DHT22;8967;47.984;7.842;2022-08-19T00:41:37;19.60;99.90
17697;DHT22;8967;47.984;7.842;2022-08-19T00:44:07;19.60;99.90
17697;DHT22;8967;47.984;7.842;2022-08-19T00:46:38;19.60;99.90
17697;DHT22;8967;47.984;7.842;2022-08-19T00:49:09;19.60;99.90
17697;DHT22;8967;47.984;7.842;2022-08-19T00:51:41;19.60;99.90
17697;DHT22;8967;47.984;7.842;2022-08-19T00:54:09;19.70;99.90
17697;DHT22;8967;47.984;7.842;2022-08-19T00:56:37;19.60;99.90
17697;DHT22;8967;47.984;7.842;2022-08-19T00:59:05;19.60;99.90
17697;DHT22;8967;47.984;7.842;2022-08-19T01:01:39;19.50;99.90
17697;DHT22;8967;47.984;7.842;2022-08-19T01:04:08;19.50;99.90
17697;DHT22;8967;47.984;7.842;2022-08-19T01:06:35;19.50;99.90
17697;DHT22;8967;47.984;7.842;2022-08-19T01:09:04;19.50;99.90
17697;DHT22;8967;47.984;7.842;2022-08-19T01:11:34;19.50;99.90
17697;DHT22;8967;47.984;7.842;2022-08-19T01:14:02;19.50;99.90
17697;DHT22;8967;47.984;7.842;2022-08-19T01:16:30;19.50;99.90
17697;DHT22;8967;47.984;7.842;2022-08-19T01:19:00;19.60;99.90
17697;DHT22;8967;47.984;7.842;2022-08-19T01:21:31;19.60;99.90
17697;DHT22;8967;47.984;7.842;2022-08-19T01:24:03;19.50;99.90
17697;DHT22;8967;47.984;7.842;2022-08-19T01:26:30;19.50;99.90
17697;DHT22;8967;47.984;7.842;2022-08-19T01:28:59;19.50;99.90
17697;DHT22;8967;47.984;7.842;2022-08-19T01:31:28;19.50;99.90
17697;DHT22;8967;47.984;7.842;2022-08-19T01:33:57;19.50;99.90
17697;DHT22;8967;47.984;7.842;2022-08-19T01:36:28;19.50;99.90
17697;DHT22;8967;47.984;7.842;2022-08-19T01:38:57;19.50;99.90
17697;DHT22;8967;47.984;7.842;2022-08-19T01:41:26;19.50;99.90
17697;DHT22;8967;47.984;7.842;2022-08-19T01:43:53;19.50;99.90
17697;DHT22;8967;47.984;7.842;2022-08-19T01:46:21;19.60;99.90
17697;DHT22;8967;47.984;7.842;2022-08-19T01:48:51;19.60;99.90
17697;DHT22;8967;47.984;7.842;2022-08-19T01:51:18;19.60;99.90
17697;DHT22;8967;47.984;7.842;2022-08-19T01:53:48;19.50;99.90
17697;DHT22;8967;47.984;7.842;2022-08-19T01:56:15;19.50;99.90
17697;DHT22;8967;47.984;7.842;2022-08-19T01:58:47;19.50;99.90
17697;DHT22;8967;47.984;7.842;2022-08-19T02:01:16;19.50;99.90
17697;DHT22;8967;47.984;7.842;2022-08-19T02:03:43;19.50;99.90
17697;DHT22;8967;47.984;7.842;2022-08-19T02:06:10;19.40;99.90
17697;DHT22;8967;47.984;7.842;2022-08-19T02:08:38;19.40;99.90
17697;DHT22;8967;47.984;7.842;2022-08-19T02:11:06;19.40;99.90
17697;DHT22;8967;47.984;7.842;2022-08-19T02:13:34;19.50;99.90
17697;DHT22;8967;47.984;7.842;2022-08-19T02:16:04;19.50;99.90
17697;DHT22;8967;47.984;7.842;2022-08-19T02:18:31;19.50;99.90
17697;DHT22;8967;47.984;7.842;2022-08-19T02:20:59;19.50;99.90
17697;DHT22;8967;47.984;7.842;2022-08-19T02:23:28;19.50;99.90
17697;DHT22;8967;47.984;7.842;2022-08-19T02:25:55;19.50;99.90
17697;DHT22;8967;47.984;7.842;2022-08-19T02:28:22;19.50;99.90
17697;DHT22;8967;47.984;7.842;2022-08-19T02:30:49;19.50;99.90
17697;DHT22;8967;47.984;7.842;2022-08-19T02:33:20;19.50;99.90
17697;DHT22;8967;47.984;7.842;2022-08-19T02:35:47;19.50;99.90
17697;DHT22;8967;47.984;7.842;2022-08-19T02:38:14;19.50;99.90
17697;DHT22;8967;47.984;7.842;2022-08-19T02:40:55;19.50;99.90
17697;DHT22;8967;47.984;7.842;2022-08-19T02:43:25;19.50;99.90
17697;DHT22;8967;47.984;7.842;2022-08-19T02:45:53;19.50;99.90
17697;DHT22;8967;47.984;7.842;2022-08-19T02:48:25;19.50;99.90
17697;DHT22;8967;47.984;7.842;2022-08-19T02:50:52;19.40;99.90
17697;DHT22;8967;47.984;7.842;2022-08-19T02:53:22;19.40;99.90
17697;DHT22;8967;47.984;7.842;2022-08-19T02:55:49;19.40;99.90
17697;DHT22;8967;47.984;7.842;2022-08-19T02:58:17;19.40;99.90
17697;DHT22;8967;47.984;7.842;2022-08-19T03:00:46;19.40;99.90
17697;DHT22;8967;47.984;7.842;2022-08-19T03:03:14;19.40;99.90
17697;DHT22;8967;47.984;7.842;2022-08-19T03:05:45;19.40;99.90
17697;DHT22;8967;47.984;7.842;2022-08-19T03:08:13;19.40;99.90
17697;DHT22;8967;47.984;7.842;2022-08-19T03:10:41;19.40;99.90
17697;DHT22;8967;47.984;7.842;2022-08-19T03:13:11;19.40;99.90
17697;DHT22;8967;47.984;7.842;2022-08-19T03:15:40;19.40;99.90
17697;DHT22;8967;47.984;7.842;2022-08-19T03:18:07;19.40;99.90
17697;DHT22;8967;47.984;7.842;2022-08-19T03:20:40;19.40;99.90
17697;DHT22;8967;47.984;7.842;2022-08-19T03:23:11;19.40;99.90
17697;DHT22;8967;47.984;7.842;2022-08-19T03:25:40;19.40;99.90
17697;DHT22;8967;47.984;7.842;2022-08-19T03:28:09;19.40;99.90
17697;DHT22;8967;47.984;7.842;2022-08-19T03:30:36;19.40;99.90
17697;DHT22;8967;47.984;7.842;2022-08-19T03:33:03;19.40;99.90
17697;DHT22;8967;47.984;7.842;2022-08-19T03:35:31;19.40;99.90
17697;DHT22;8967;47.984;7.842;2022-08-19T03:37:59;19.40;99.90
17697;DHT22;8967;47.984;7.842;2022-08-19T03:40:27;19.50;99.90
17697;DHT22;8967;47.984;7.842;2022-08-19T03:42:55;19.50;99.90
17697;DHT22;8967;47.984;7.842;2022-08-19T03:45:22;19.50;99.90
17697;DHT22;8967;47.984;7.842;2022-08-19T03:47:51;19.50;99.90
17697;DHT22;8967;47.984;7.842;2022-08-19T03:50:19;19.50;99.90
17697;DHT22;8967;47.984;7.842;2022-08-19T03:52:48;19.40;99.90
17697;DHT22;8967;47.984;7.842;2022-08-19T03:55:17;19.40;99.90
17697;DHT22;8967;47.984;7.842;2022-08-19T03:57:45;19.40;99.90
17697;DHT22;8967;47.984;7.842;2022-08-19T04:00:15;19.50;99.90
17697;DHT22;8967;47.984;7.842;2022-08-19T04:02:42;19.40;99.90
17697;DHT22;8967;47.984;7.842;2022-08-19T04:05:09;19.40;99.90
17697;DHT22;8967;47.984;7.842;2022-08-19T04:07:39;19.40;99.90
17697;DHT22;8967;47.984;7.842;2022-08-19T04:10:07;19.40;99.90
17697;DHT22;8967;47.984;7.842;2022-08-19T04:12:34;19.40;99.90
17697;DHT22;8967;47.984;7.842;2022-08-19T04:15:04;19.40;99.90
17697;DHT22;8967;47.984;7.842;2022-08-19T04:17:31;19.40;99.90
17697;DHT22;8967;47.984;7.842;2022-08-19T04:19:59;19.40;99.90
17697;DHT22;8967;47.984;7.842;2022-08-19T04:22:26;19.40;99.90
17697;DHT22;8967;47.984;7.842;2022-08-19T04:24:53;19.40;99.90
17697;DHT22;8967;47.984;7.842;2022-08-19T04:27:20;19.30;99.90
17697;DHT22;8967;47.984;7.842;2022-08-19T04:29:47;19.30;99.90
17697;DHT22;8967;47.984;7.842;2022-08-19T04:32:16;19.30;99.90
17697;DHT22;8967;47.984;7.842;2022-08-19T04:34:43;19.30;99.90
17697;DHT22;8967;47.984;7.842;2022-08-19T04:37:11;19.30;99.90
17697;DHT22;8967;47.984;7.842;2022-08-19T04:39:40;19.30;99.90
17697;DHT22;8967;47.984;7.842;2022-08-19T04:42:24;19.30;99.90
17697;DHT22;8967;47.984;7.842;2022-08-19T04:45:09;19.40;99.90
17697;DHT22;8967;47.984;7.842;2022-08-19T04:47:40;19.40;99.90
17697;DHT22;8967;47.984;7.842;2022-08-19T04:50:08;19.40;99.90
17697;DHT22;8967;47.984;7.842;2022-08-19T04:52:37;19.40;99.90
17697;DHT22;8967;47.984;7.842;2022-08-19T04:55:08;19.40;99.90
17697;DHT22;8967;47.984;7.842;2022-08-19T04:57:37;19.40;99.90
17697;DHT22;8967;47.984;7.842;2022-08-19T05:00:07;19.40;99.90
17697;DHT22;8967;47.984;7.842;2022-08-19T05:02:34;19.40;99.90
17697;DHT22;8967;47.984;7.842;2022-08-19T05:05:03;19.40;99.90
17697;DHT22;8967;47.984;7.842;2022-08-19T05:07:32;19.40;99.90
17697;DHT22;8967;47.984;7.842;2022-08-19T05:09:59;19.30;99.90
17697;DHT22;8967;47.984;7.842;2022-08-19T05:12:28;19.30;99.90
17697;DHT22;8967;47.984;7.842;2022-08-19T05:14:55;19.30;99.90
17697;DHT22;8967;47.984;7.842;2022-08-19T05:17:26;19.30;99.90
17697;DHT22;8967;47.984;7.842;2022-08-19T05:19:53;19.30;99.90
17697;DHT22;8967;47.984;7.842;2022-08-19T05:22:39;19.30;99.90
17697;DHT22;8967;47.984;7.842;2022-08-19T05:25:09;19.30;99.90
17697;DHT22;8967;47.984;7.842;2022-08-19T05:27:37;19.30;99.90
17697;DHT22;8967;47.984;7.842;2022-08-19T05:30:05;19.30;99.90
17697;DHT22;8967;47.984;7.842;2022-08-19T05:32:33;19.40;99.90
17697;DHT22;8967;47.984;7.842;2022-08-19T05:35:00;19.40;99.90
17697;DHT22;8967;47.984;7.842;2022-08-19T05:37:29;19.40;99.90
17697;DHT22;8967;47.984;7.842;2022-08-19T05:40:00;19.40;99.90
17697;DHT22;8967;47.984;7.842;2022-08-19T05:42:27;19.40;99.90
17697;DHT22;8967;47.984;7.842;2022-08-19T05:44:54;19.40;99.90
17697;DHT22;8967;47.984;7.842;2022-08-19T05:47:22;19.40;99.90
17697;DHT22;8967;47.984;7.842;2022-08-19T05:49:49;19.50;99.90
17697;DHT22;8967;47.984;7.842;2022-08-19T05:52:17;19.50;99.90
17697;DHT22;8967;47.984;7.842;2022-08-19T05:54:44;19.50;99.90
17697;DHT22;8967;47.984;7.842;2022-08-19T05:57:14;19.50;99.90
17697;DHT22;8967;47.984;7.842;2022-08-19T05:59:42;19.50;99.90
17697;DHT22;8967;47.984;7.842;2022-08-19T06:02:10;19.50;99.90
17697;DHT22;8967;47.984;7.842;2022-08-19T06:04:37;19.50;99.90
17697;DHT22;8967;47.984;7.842;2022-08-19T06:07:05;19.60;99.90
17697;DHT22;8967;47.984;7.842;2022-08-19T06:09:32;19.60;99.90
17697;DHT22;8967;47.984;7.842;2022-08-19T06:11:59;19.60;99.90
17697;DHT22;8967;47.984;7.842;2022-08-19T06:14:31;19.60;99.90
17697;DHT22;8967;47.984;7.842;2022-08-19T06:17:01;19.60;99.90
17697;DHT22;8967;47.984;7.842;2022-08-19T06:19:29;19.70;99.90
17697;DHT22;8967;47.984;7.842;2022-08-19T06:21:57;19.70;99.90
17697;DHT22;8967;47.984;7.842;2022-08-19T06:24:26;19.70;99.90
17697;DHT22;8967;47.984;7.842;2022-08-19T06:26:54;19.70;99.90
17697;DHT22;8967;47.984;7.842;2022-08-19T06:29:24;19.80;99.90
17697;DHT22;8967;47.984;7.842;2022-08-19T06:31:54;19.80;99.90
17697;DHT22;8967;47.984;7.842;2022-08-19T06:34:23;19.80;99.90
17697;DHT22;8967;47.984;7.842;2022-08-19T06:36:51;19.90;99.90
17697;DHT22;8967;47.984;7.842;2022-08-19T06:39:21;19.90;99.90
17697;DHT22;8967;47.984;7.842;2022-08-19T06:41:52;19.90;99.90
17697;DHT22;8967;47.984;7.842;2022-08-19T06:44:21;19.90;99.90
17697;DHT22;8967;47.984;7.842;2022-08-19T06:46:49;19.90;99.90
17697;DHT22;8967;47.984;7.842;2022-08-19T06:49:18;19.90;99.90
17697;DHT22;8967;47.984;7.842;2022-08-19T06:51:48;20.00;99.90
17697;DHT22;8967;47.984;7.842;2022-08-19T06:54:17;20.00;99.90
17697;DHT22;8967;47.984;7.842;2022-08-19T06:56:44;20.00;99.90
17697;DHT22;8967;47.984;7.842;2022-08-19T06:59:15;20.10;99.90
17697;DHT22;8967;47.984;7.842;2022-08-19T07:01:45;20.10;99.90
17697;DHT22;8967;47.984;7.842;2022-08-19T07:04:14;20.10;99.90
17697;DHT22;8967;47.984;7.842;2022-08-19T07:06:43;20.10;99.90
17697;DHT22;8967;47.984;7.842;2022-08-19T07:09:13;20.10;99.90
17697;DHT22;8967;47.984;7.842;2022-08-19T07:11:44;20.20;99.90
17697;DHT22;8967;47.984;7.842;2022-08-19T07:14:16;20.20;99.90
17697;DHT22;8967;47.984;7.842;2022-08-19T07:16:44;20.20;99.90
17697;DHT22;8967;47.984;7.842;2022-08-19T07:19:12;20.30;99.90
17697;DHT22;8967;47.984;7.842;2022-08-19T07:21:40;20.30;99.90
17697;DHT22;8967;47.984;7.842;2022-08-19T07:24:09;20.30;99.90
17697;DHT22;8967;47.984;7.842;2022-08-19T07:26:39;20.40;99.90
17697;DHT22;8967;47.984;7.842;2022-08-19T07:29:07;20.40;99.90
17697;DHT22;8967;47.984;7.842;2022-08-19T07:31:35;20.40;99.90
17697;DHT22;8967;47.984;7.842;2022-08-19T07:34:06;20.50;99.90
17697;DHT22;8967;47.984;7.842;2022-08-19T07:36:35;20.50;99.90
17697;DHT22;8967;47.984;7.842;2022-08-19T07:39:11;20.50;99.90
17697;DHT22;8967;47.984;7.842;2022-08-19T07:41:39;20.60;99.90
17697;DHT22;8967;47.984;7.842;2022-08-19T07:44:07;20.70;99.90
17697;DHT22;8967;47.984;7.842;2022-08-19T07:46:37;20.70;99.90
17697;DHT22;8967;47.984;7.842;2022-08-19T07:49:07;20.70;99.90
17697;DHT22;8967;47.984;7.842;2022-08-19T07:51:37;20.70;99.90
17697;DHT22;8967;47.984;7.842;2022-08-19T07:54:04;20.80;99.90
17697;DHT22;8967;47.984;7.842;2022-08-19T07:56:33;20.80;99.90
17697;DHT22;8967;47.984;7.842;2022-08-19T07:59:00;20.80;99.90
17697;DHT22;8967;47.984;7.842;2022-08-19T08:01:27;20.90;99.90
17697;DHT22;8967;47.984;7.842;2022-08-19T08:03:56;20.90;99.90
17697;DHT22;8967;47.984;7.842;2022-08-19T08:06:41;20.90;99.90
17697;DHT22;8967;47.984;7.842;2022-08-19T08:09:27;21.00;99.90
17697;DHT22;8967;47.984;7.842;2022-08-19T08:12:01;21.00;99.90
17697;DHT22;8967;47.984;7.842;2022-08-19T08:14:32;21.00;99.90
17697;DHT22;8967;47.984;7.842;2022-08-19T08:17:01;21.00;99.90
17697;DHT22;8967;47.984;7.842;2022-08-19T08:19:31;21.00;99.90
17697;DHT22;8967;47.984;7.842;2022-08-19T08:22:00;21.00;99.90
17697;DHT22;8967;47.984;7.842;2022-08-19T08:24:28;21.00;99.90
17697;DHT22;8967;47.984;7.842;2022-08-19T08:26:58;21.00;99.90
17697;DHT22;8967;47.984;7.842;2022-08-19T08:29:29;21.00;99.90
17697;DHT22;8967;47.984;7.842;2022-08-19T08:31:56;21.00;99.90
17697;DHT22;8967;47.984;7.842;2022-08-19T08:34:24;21.00;99.90
17697;DHT22;8967;47.984;7.842;2022-08-19T08:36:51;21.00;99.90
17697;DHT22;8967;47.984;7.842;2022-08-19T08:39:20;21.00;99.90
17697;DHT22;8967;47.984;7.842;2022-08-19T08:41:53;21.00;99.90
17697;DHT22;8967;47.984;7.842;2022-08-19T08:44:37;21.00;99.90
17697;DHT22;8967;47.984;7.842;2022-08-19T08:47:10;21.00;99.90
17697;DHT22;8967;47.984;7.842;2022-08-19T08:49:43;21.00;99.90
17697;DHT22;8967;47.984;7.842;2022-08-19T08:52:17;21.00;99.90
17697;DHT22;8967;47.984;7.842;2022-08-19T08:54:48;21.00;99.90
17697;DHT22;8967;47.984;7.842;2022-08-19T08:57:24;21.10;99.90
17697;DHT22;8967;47.984;7.842;2022-08-19T08:59:57;21.10;99.90
17697;DHT22;8967;47.984;7.842;2022-08-19T09:02:28;21.10;99.90
17697;DHT22;8967;47.984;7.842;2022-08-19T09:04:55;21.00;99.90
17697;DHT22;8967;47.984;7.842;2022-08-19T09:07:39;21.10;99.90
17697;DHT22;8967;47.984;7.842;2022-08-19T09:10:13;21.00;99.90
17697;DHT22;8967;47.984;7.842;2022-08-19T09:12:45;21.00;99.90
17697;DHT22;8967;47.984;7.842;2022-08-19T09:15:20;21.00;99.90
17697;DHT22;8967;47.984;7.842;2022-08-19T09:17:49;21.00;99.90
17697;DHT22;8967;47.984;7.842;2022-08-19T09:20:19;21.00;99.90
17697;DHT22;8967;47.984;7.842;2022-08-19T09:22:46;21.00;99.90
17697;DHT22;8967;47.984;7.842;2022-08-19T09:25:17;21.00;99.90
17697;DHT22;8967;47.984;7.842;2022-08-19T09:27:46;21.10;99.90
17697;DHT22;8967;47.984;7.842;2022-08-19T09:30:18;21.10;99.90
17697;DHT22;8967;47.984;7.842;2022-08-19T09:32:47;21.10;99.90
17697;DHT22;8967;47.984;7.842;2022-08-19T09:35:15;21.10;99.90
17697;DHT22;8967;47.984;7.842;2022-08-19T09:37:42;21.10;99.90
17697;DHT22;8967;47.984;7.842;2022-08-19T09:40:12;21.20;99.90
17697;DHT22;8967;47.984;7.842;2022-08-19T09:42:42;21.20;99.90
17697;DHT22;8967;47.984;7.842;2022-08-19T09:45:13;21.20;99.90
17697;DHT22;8967;47.984;7.842;2022-08-19T09:47:43;21.20;99.90
17697;DHT22;8967;47.984;7.842;2022-08-19T09:50:12;21.30;99.90
17697;DHT22;8967;47.984;7.842;2022-08-19T09:52:39;21.30;99.90
17697;DHT22;8967;47.984;7.842;2022-08-19T09:55:09;21.40;99.90
17697;DHT22;8967;47.984;7.842;2022-08-19T09:57:37;21.40;99.90
17697;DHT22;8967;47.984;7.842;2022-08-19T10:00:07;21.40;99.90
17697;DHT22;8967;47.984;7.842;2022-08-19T10:02:35;21.50;99.90
17697;DHT22;8967;47.984;7.842;2022-08-19T10:05:07;21.50;99.90
17697;DHT22;8967;47.984;7.842;2022-08-19T10:07:51;21.50;99.90
17697;DHT22;8967;47.984;7.842;2022-08-19T10:10:18;21.60;99.90
17697;DHT22;8967;47.984;7.842;2022-08-19T10:12:47;21.70;99.90
17697;DHT22;8967;47.984;7.842;2022-08-19T10:15:14;21.80;99.90
17697;DHT22;8967;47.984;7.842;2022-08-19T10:17:45;21.80;99.90
17697;DHT22;8967;47.984;7.842;2022-08-19T10:20:14;21.90;99.90
17697;DHT22;8967;47.984;7.842;2022-08-19T10:22:43;21.90;99.90
17697;DHT22;8967;47.984;7.842;2022-08-19T10:25:11;22.00;99.90
17697;DHT22;8967;47.984;7.842;2022-08-19T10:27:42;22.00;99.90
17697;DHT22;8967;47.984;7.842;2022-08-19T10:30:10;22.10;99.90
17697;DHT22;8967;47.984;7.842;2022-08-19T10:32:37;22.10;99.90
17697;DHT22;8967;47.984;7.842;2022-08-19T10:35:05;22.10;99.90
17697;DHT22;8967;47.984;7.842;2022-08-19T10:37:37;22.10;99.90
17697;DHT22;8967;47.984;7.842;2022-08-19T10:40:10;22.10;99.90
17697;DHT22;8967;47.984;7.842;2022-08-19T10:42:40;22.10;99.90
17697;DHT22;8967;47.984;7.842;2022-08-19T10:45:10;22.20;99.90
17697;DHT22;8967;47.984;7.842;2022-08-19T10:47:37;22.20;99.90
17697;DHT22;8967;47.984;7.842;2022-08-19T10:50:07;22.20;99.90
17697;DHT22;8967;47.984;7.842;2022-08-19T10:52:53;22.20;99.90
17697;DHT22;8967;47.984;7.842;2022-08-19T10:55:23;22.20;99.90
17697;DHT22;8967;47.984;7.842;2022-08-19T10:58:12;22.20;99.90
17697;DHT22;8967;47.984;7.842;2022-08-19T11:00:40;22.20;99.90
17697;DHT22;8967;47.984;7.842;2022-08-19T11:03:10;22.20;99.90
17697;DHT22;8967;47.984;7.842;2022-08-19T11:05:38;22.30;99.90
17697;DHT22;8967;47.984;7.842;2022-08-19T11:08:08;22.30;99.90
17697;DHT22;8967;47.984;7.842;2022-08-19T11:10:44;22.30;99.90
17697;DHT22;8967;47.984;7.842;2022-08-19T11:13:11;22.40;99.90
17697;DHT22;8967;47.984;7.842;2022-08-19T11:15:38;22.40;99.90
17697;DHT22;8967;47.984;7.842;2022-08-19T11:18:05;22.50;99.90
17697;DHT22;8967;47.984;7.842;2022-08-19T11:20:36;22.50;99.90
17697;DHT22;8967;47.984;7.842;2022-08-19T11:23:03;22.60;99.90
17697;DHT22;8967;47.984;7.842;2022-08-19T11:25:33;22.60;99.90
17697;DHT22;8967;47.984;7.842;2022-08-19T11:28:01;22.70;99.90
17697;DHT22;8967;47.984;7.842;2022-08-19T11:30:28;22.70;99.90
17697;DHT22;8967;47.984;7.842;2022-08-19T11:32:55;22.80;99.90
17697;DHT22;8967;47.984;7.842;2022-08-19T11:35:22;22.80;99.90
17697;DHT22;8967;47.984;7.842;2022-08-19T11:37:50;22.80;99.90
17697;DHT22;8967;47.984;7.842;2022-08-19T11:40:19;22.90;99.90
17697;DHT22;8967;47.984;7.842;2022-08-19T11:42:49;22.90;99.90
17697;DHT22;8967;47.984;7.842;2022-08-19T11:45:23;22.90;99.90
17697;DHT22;8967;47.984;7.842;2022-08-19T11:47:52;22.90;99.90
17697;DHT22;8967;47.984;7.842;2022-08-19T11:50:24;22.90;99.90
17697;DHT22;8967;47.984;7.842;2022-08-19T11:52:54;22.90;99.90
17697;DHT22;8967;47.984;7.842;2022-08-19T11:55:21;23.00;99.90
17697;DHT22;8967;47.984;7.842;2022-08-19T11:57:50;23.00;99.90
17697;DHT22;8967;47.984;7.842;2022-08-19T12:00:17;23.00;99.90
17697;DHT22;8967;47.984;7.842;2022-08-19T12:02:44;23.10;99.90
17697;DHT22;8967;47.984;7.842;2022-08-19T12:05:11;23.10;99.90
17697;DHT22;8967;47.984;7.842;2022-08-19T12:07:38;23.10;99.90
17697;DHT22;8967;47.984;7.842;2022-08-19T12:10:07;23.10;99.90
17697;DHT22;8967;47.984;7.842;2022-08-19T12:12:34;23.10;99.90
17697;DHT22;8967;47.984;7.842;2022-08-19T12:15:03;23.10;99.90
17697;DHT22;8967;47.984;7.842;2022-08-19T12:17:30;23.10;99.90
17697;DHT22;8967;47.984;7.842;2022-08-19T12:19:57;23.20;99.90
17697;DHT22;8967;47.984;7.842;2022-08-19T12:22:24;23.20;99.90
17697;DHT22;8967;47.984;7.842;2022-08-19T12:24:52;23.20;99.80
17697;DHT22;8967;47.984;7.842;2022-08-19T12:27:20;23.20;99.60
17697;DHT22;8967;47.984;7.842;2022-08-19T12:29:47;23.20;99.50
17697;DHT22;8967;47.984;7.842;2022-08-19T12:32:16;23.20;99.30
17697;DHT22;8967;47.984;7.842;2022-08-19T12:34:43;23.30;99.20
17697;DHT22;8967;47.984;7.842;2022-08-19T12:37:13;23.30;99.00
17697;DHT22;8967;47.984;7.842;2022-08-19T12:39:41;23.30;99.00
17697;DHT22;8967;47.984;7.842;2022-08-19T12:42:09;23.30;98.80
17697;DHT22;8967;47.984;7.842;2022-08-19T12:44:37;23.30;98.60
17697;DHT22;8967;47.984;7.842;2022-08-19T12:47:05;23.30;98.30
17697;DHT22;8967;47.984;7.842;2022-08-19T12:49:34;23.40;98.30
17697;DHT22;8967;47.984;7.842;2022-08-19T12:52:03;23.40;98.20
17697;DHT22;8967;47.984;7.842;2022-08-19T12:54:32;23.40;98.00
17697;DHT22;8967;47.984;7.842;2022-08-19T12:56:59;23.40;98.00
17697;DHT22;8967;47.984;7.842;2022-08-19T12:59:26;23.40;97.70
17697;DHT22;8967;47.984;7.842;2022-08-19T13:01:54;23.40;97.50
17697;DHT22;8967;47.984;7.842;2022-08-19T13:04:21;23.40;97.40
17697;DHT22;8967;47.984;7.842;2022-08-19T13:06:49;23.50;97.30
17697;DHT22;8967;47.984;7.842;2022-08-19T13:09:19;23.50;97.60
17697;DHT22;8967;47.984;7.842;2022-08-19T13:11:46;23.50;97.10
17697;DHT22;8967;47.984;7.842;2022-08-19T13:14:13;23.50;97.20
17697;DHT22;8967;47.984;7.842;2022-08-19T13:16:40;23.60;97.50
17697;DHT22;8967;47.984;7.842;2022-08-19T13:19:10;23.60;97.80
17697;DHT22;8967;47.984;7.842;2022-08-19T13:21:39;23.60;97.80
17697;DHT22;8967;47.984;7.842;2022-08-19T13:24:09;23.60;97.60
17697;DHT22;8967;47.984;7.842;2022-08-19T13:26:37;23.60;97.60
17697;DHT22;8967;47.984;7.842;2022-08-19T13:29:06;23.60;97.60
17697;DHT22;8967;47.984;7.842;2022-08-19T13:31:53;23.60;97.40
17697;DHT22;8967;47.984;7.842;2022-08-19T13:34:38;23.60;97.40
17697;DHT22;8967;47.984;7.842;2022-08-19T13:37:05;23.60;97.50
17697;DHT22;8967;47.984;7.842;2022-08-19T13:39:35;23.60;97.70
17697;DHT22;8967;47.984;7.842;2022-08-19T13:42:03;23.60;97.70
17697;DHT22;8967;47.984;7.842;2022-08-19T13:44:33;23.60;97.70
17697;DHT22;8967;47.984;7.842;2022-08-19T13:47:02;23.60;97.30
17697;DHT22;8967;47.984;7.842;2022-08-19T13:49:33;23.60;97.20
17697;DHT22;8967;47.984;7.842;2022-08-19T13:52:03;23.60;97.20
17697;DHT22;8967;47.984;7.842;2022-08-19T13:54:31;23.60;97.20
17697;DHT22;8967;47.984;7.842;2022-08-19T13:56:59;23.60;97.20
17697;DHT22;8967;47.984;7.842;2022-08-19T13:59:26;23.70;97.20
17697;DHT22;8967;47.984;7.842;2022-08-19T14:01:57;23.70;97.10
17697;DHT22;8967;47.984;7.842;2022-08-19T14:04:25;23.70;97.10
17697;DHT22;8967;47.984;7.842;2022-08-19T14:06:54;23.70;97.00
17697;DHT22;8967;47.984;7.842;2022-08-19T14:09:21;23.70;96.80
17697;DHT22;8967;47.984;7.842;2022-08-19T14:11:48;23.70;96.60
17697;DHT22;8967;47.984;7.842;2022-08-19T14:14:17;23.80;96.40
17697;DHT22;8967;47.984;7.842;2022-08-19T14:16:44;23.70;96.10
17697;DHT22;8967;47.984;7.842;2022-08-19T14:19:12;23.80;95.90
17697;DHT22;8967;47.984;7.842;2022-08-19T14:21:39;23.80;95.70
17697;DHT22;8967;47.984;7.842;2022-08-19T14:24:06;23.80;95.60
17697;DHT22;8967;47.984;7.842;2022-08-19T14:26:34;23.80;95.40
17697;DHT22;8967;47.984;7.842;2022-08-19T14:29:01;23.80;95.40
17697;DHT22;8967;47.984;7.842;2022-08-19T14:31:29;23.80;95.20
17697;DHT22;8967;47.984;7.842;2022-08-19T14:33:56;23.70;95.20
17697;DHT22;8967;47.984;7.842;2022-08-19T14:36:23;23.70;95.20
17697;DHT22;8967;47.984;7.842;2022-08-19T14:38:51;23.70;95.10
17697;DHT22;8967;47.984;7.842;2022-08-19T14:41:20;23.70;95.10
17697;DHT22;8967;47.984;7.842;2022-08-19T14:43:50;23.70;95.50
17697;DHT22;8967;47.984;7.842;2022-08-19T14:46:19;23.60;95.30
17697;DHT22;8967;47.984;7.842;2022-08-19T14:48:49;23.60;96.00
17697;DHT22;8967;47.984;7.842;2022-08-19T14:51:17;23.60;96.30
17697;DHT22;8967;47.984;7.842;2022-08-19T14:53:44;23.60;96.50
17697;DHT22;8967;47.984;7.842;2022-08-19T14:56:16;23.60;96.90
17697;DHT22;8967;47.984;7.842;2022-08-19T14:58:44;23.60;97.20
17697;DHT22;8967;47.984;7.842;2022-08-19T15:01:12;23.60;97.50
17697;DHT22;8967;47.984;7.842;2022-08-19T15:03:40;23.50;97.80
17697;DHT22;8967;47.984;7.842;2022-08-19T15:06:10;23.50;98.00
17697;DHT22;8967;47.984;7.842;2022-08-19T15:08:38;23.50;98.20
17697;DHT22;8967;47.984;7.842;2022-08-19T15:11:08;23.40;98.40
17697;DHT22;8967;47.984;7.842;2022-08-19T15:13:36;23.40;98.40
17697;DHT22;8967;47.984;7.842;2022-08-19T15:16:05;23.30;98.60
17697;DHT22;8967;47.984;7.842;2022-08-19T15:18:32;23.30;98.80
17697;DHT22;8967;47.984;7.842;2022-08-19T15:21:01;23.20;98.90
17697;DHT22;8967;47.984;7.842;2022-08-19T15:23:30;23.20;99.10
17697;DHT22;8967;47.984;7.842;2022-08-19T15:25:57;23.10;99.20
17697;DHT22;8967;47.984;7.842;2022-08-19T15:28:26;23.10;99.40
17697;DHT22;8967;47.984;7.842;2022-08-19T15:30:54;23.10;99.90
17697;DHT22;8967;47.984;7.842;2022-08-19T15:33:21;23.10;99.70
17697;DHT22;8967;47.984;7.842;2022-08-19T15:35:51;23.00;99.60
17697;DHT22;8967;47.984;7.842;2022-08-19T15:38:19;23.00;99.70
17697;DHT22;8967;47.984;7.842;2022-08-19T15:40:52;23.00;99.90
17697;DHT22;8967;47.984;7.842;2022-08-19T15:43:41;22.90;99.80
17697;DHT22;8967;47.984;7.842;2022-08-19T15:46:08;22.90;99.80
17697;DHT22;8967;47.984;7.842;2022-08-19T15:48:36;22.90;99.80
17697;DHT22;8967;47.984;7.842;2022-08-19T15:51:04;22.90;99.90
17697;DHT22;8967;47.984;7.842;2022-08-19T15:53:31;22.90;99.90
17697;DHT22;8967;47.984;7.842;2022-08-19T15:55:59;22.90;99.90
17697;DHT22;8967;47.984;7.842;2022-08-19T15:58:26;22.90;99.90